Airfield :
LOGIN :

Register | Disclaimer

   EN    FR    IT 

 










Legend :    VFR   Marginal VFR   IFR   Intensive IFR   Very Intensive IFR
Visi :
Ceiling :
>= 8 km
>= 3000ft
5 to 8 km
1000 to 3000 ft
1500m to 5 km
500 to 1000 ft
800 to 1500m
200 to 500 ft
< 800m
< 200 ft
Symbols :   Thunderstorms  Fog  Heavy snow  Heavy precipitations  Wind > 20 kt
SIGMETs :     Misc.  Thunderstorms  Icing  Turbulence  Mountain Waves  Volcanic Ashes






- Airport Elevation : 425 ft
- IATA code : DTM


EDLW - Dortmund

CURRENT METAR :
  • 151350Z 24005KT 220V300 9999 FEW026 BKN044 18/13 Q1006

EXPIRED METARs :
  • 151320Z 25005KT 9999 FEW024 BKN036 18/14 Q1006
  • 151250Z 27004KT 170V340 9999 FEW038 18/14 Q1006
  • 151220Z VRB04KT 9999 FEW025 18/14 Q1006
  • 151150Z VRB03KT CAVOK 18/14 Q1006
  • 151120Z 26004KT 210V320 9999 FEW024 18/13 Q1006

TAF TAF EDLW
Valid from the 15 at 12:00 until the 16 at 12:00 UTC


151100Z 1512/1612 VRB03KT 9999 SCT030 BKN045
BECMG 1513/1517 25008KT
TEMPO 1516/1522 RA
TEMPO 1517/1604 BKN012
BECMG 1604/1608 21013KT
PROB30
TEMPO 1609/1612 20015G25KT



MET'MAP, your aeronautical weather chart ! - Copyright ORBIFLY December 2007 - Disclaimer

ORBIFLY MET'MAP TEAM :

Programming & Development : Alexandra Zaïnal
Concept & Development : Baudouin d'Aumeries
Co-Development & Prog : Marc-Olivier Méhu
Technical & hardware support : Manuel Goepfert

Contact : metmap@orbifly.com




SOURCES & CREDITS :

   NOAA